createdAt,value
2022-10-10T00:01:09.871Z,10.70
2022-10-10T00:03:38.240Z,14.67
2022-10-10T00:06:06.895Z,10.07
2022-10-10T00:08:35.076Z,12.03
2022-10-10T00:11:03.233Z,10.47
2022-10-10T00:13:33.613Z,12.80
2022-10-10T00:16:01.856Z,10.50
2022-10-10T00:18:30.460Z,20.93
2022-10-10T00:20:58.654Z,10.97
2022-10-10T00:23:27.033Z,9.57
2022-10-10T00:25:55.801Z,13.80
2022-10-10T00:28:24.424Z,8.90
2022-10-10T00:30:53.935Z,16.20
2022-10-10T00:33:22.084Z,15.00
2022-10-10T00:35:50.634Z,12.40
2022-10-10T00:38:18.752Z,13.77
2022-10-10T00:40:48.537Z,12.70
2022-10-10T00:43:17.547Z,12.10
2022-10-10T00:45:48.255Z,9.47
2022-10-10T00:48:20.934Z,8.30
2022-10-10T00:50:53.441Z,8.83
2022-10-10T00:53:26.189Z,18.07
2022-10-10T00:55:55.672Z,15.73
2022-10-10T00:58:24.198Z,14.43
2022-10-10T01:00:53.314Z,8.93
2022-10-10T01:03:22.913Z,11.07
2022-10-10T01:05:52.285Z,11.70
2022-10-10T01:08:22.217Z,10.67
2022-10-10T01:11:03.593Z,12.27
2022-10-10T01:13:36.771Z,16.83
2022-10-10T01:16:12.114Z,10.87
2022-10-10T01:18:50.070Z,13.03
2022-10-10T01:21:27.914Z,9.80
2022-10-10T01:24:27.238Z,11.73
2022-10-10T01:27:30.988Z,16.40
2022-10-10T01:30:04.138Z,10.27
2022-10-10T01:32:40.638Z,18.33
2022-10-10T01:35:24.559Z,13.03
2022-10-10T01:38:00.263Z,9.40
2022-10-10T01:40:34.401Z,31.93
2022-10-10T01:43:07.165Z,12.90
2022-10-10T01:45:36.663Z,16.20
2022-10-10T01:48:08.000Z,13.43
2022-10-10T01:50:44.712Z,12.83
2022-10-10T01:53:21.805Z,12.33
2022-10-10T01:55:57.351Z,20.13
2022-10-10T01:58:47.483Z,10.90
2022-10-10T02:01:22.837Z,20.00
2022-10-10T02:03:55.631Z,14.77
2022-10-10T02:06:30.281Z,9.80
2022-10-10T02:09:02.944Z,11.50
2022-10-10T02:11:34.589Z,13.63
2022-10-10T02:14:07.691Z,10.80
2022-10-10T02:16:40.687Z,15.50
2022-10-10T02:19:11.769Z,11.50
2022-10-10T02:21:41.181Z,11.83
2022-10-10T02:24:12.220Z,12.17
2022-10-10T02:26:42.448Z,17.50
2022-10-10T02:29:13.604Z,11.97
2022-10-10T02:31:49.063Z,12.20
2022-10-10T02:34:19.694Z,18.63
2022-10-10T02:36:51.918Z,11.70
2022-10-10T02:39:23.884Z,14.43
2022-10-10T02:41:53.699Z,38.33
2022-10-10T02:44:22.608Z,19.47
2022-10-10T02:46:52.485Z,12.13
2022-10-10T02:49:25.345Z,16.37
2022-10-10T02:51:53.504Z,13.53
2022-10-10T02:54:21.631Z,15.60
2022-10-10T02:56:49.749Z,13.43
2022-10-10T02:59:17.977Z,14.53
2022-10-10T03:01:46.387Z,14.30
2022-10-10T03:04:15.975Z,13.73
2022-10-10T03:06:44.280Z,15.30
2022-10-10T03:09:12.557Z,16.30
2022-10-10T03:11:40.677Z,13.90
2022-10-10T03:14:08.816Z,11.70
2022-10-10T03:16:37.019Z,19.60
2022-10-10T03:19:08.313Z,13.80
2022-10-10T03:21:37.816Z,17.23
2022-10-10T03:24:06.201Z,10.90
2022-10-10T03:26:34.611Z,16.40
2022-10-10T03:29:03.303Z,11.20
2022-10-10T03:31:31.632Z,12.73
2022-10-10T03:34:00.515Z,14.90
2022-10-10T03:36:28.694Z,14.50
2022-10-10T03:38:58.291Z,13.93
2022-10-10T03:41:26.426Z,9.27
2022-10-10T03:43:54.583Z,19.63
2022-10-10T03:46:22.734Z,13.73
2022-10-10T03:48:51.122Z,13.50
2022-10-10T03:51:19.223Z,19.90
2022-10-10T03:53:47.471Z,11.63
2022-10-10T03:56:16.958Z,18.10
2022-10-10T03:58:45.091Z,16.67
2022-10-10T04:01:13.274Z,17.03
2022-10-10T04:03:41.434Z,19.43
2022-10-10T04:06:09.642Z,18.10
2022-10-10T04:08:37.766Z,12.53
2022-10-10T04:11:06.052Z,18.77
2022-10-10T04:13:35.615Z,14.80
2022-10-10T04:16:03.900Z,16.77
2022-10-10T04:18:32.013Z,11.70
2022-10-10T04:21:03.550Z,15.93
2022-10-10T04:23:31.778Z,11.83
2022-10-10T04:25:59.961Z,14.83
2022-10-10T04:28:28.083Z,11.77
2022-10-10T04:30:57.665Z,16.87
2022-10-10T04:33:25.806Z,13.30
2022-10-10T04:35:53.883Z,15.53
2022-10-10T04:38:22.823Z,11.00
2022-10-10T04:40:51.138Z,16.00
2022-10-10T04:43:19.749Z,16.87
2022-10-10T04:45:48.073Z,12.80
2022-10-10T04:48:17.590Z,14.90
2022-10-10T04:50:45.719Z,20.63
2022-10-10T04:53:13.863Z,13.40
2022-10-10T04:55:41.981Z,11.57
2022-10-10T04:58:10.074Z,14.77
2022-10-10T05:00:39.911Z,23.90
2022-10-10T05:03:09.657Z,11.60
2022-10-10T05:05:39.379Z,16.10
2022-10-10T05:08:08.588Z,16.90
2022-10-10T05:10:38.874Z,12.97
2022-10-10T05:13:07.357Z,13.57
2022-10-10T05:15:36.247Z,14.97
2022-10-10T05:18:05.059Z,11.60
2022-10-10T05:20:34.246Z,14.27
2022-10-10T05:23:03.779Z,10.40
2022-10-10T05:25:31.958Z,11.17
2022-10-10T05:28:00.213Z,13.87
2022-10-10T05:30:28.415Z,11.97
2022-10-10T05:32:56.693Z,11.57
2022-10-10T05:35:24.840Z,19.63
2022-10-10T05:37:52.908Z,12.10
2022-10-10T05:40:22.593Z,13.17
2022-10-10T05:42:50.853Z,14.10
2022-10-10T05:45:19.290Z,11.70
2022-10-10T05:47:48.326Z,11.80
2022-10-10T05:50:28.083Z,10.40
2022-10-10T05:52:56.241Z,9.37
2022-10-10T05:55:26.055Z,11.23
2022-10-10T05:57:54.387Z,11.70
2022-10-10T06:00:22.585Z,11.53
2022-10-10T06:02:51.025Z,10.97
2022-10-10T06:05:19.392Z,9.73
2022-10-10T06:08:04.712Z,15.57
2022-10-10T06:10:37.695Z,9.77
2022-10-10T06:13:06.013Z,9.63
2022-10-10T06:15:34.206Z,14.20
2022-10-10T06:18:02.581Z,15.40
2022-10-10T06:20:30.969Z,16.80
2022-10-10T06:22:59.072Z,16.20
2022-10-10T06:25:40.166Z,21.10
2022-10-10T06:28:10.802Z,19.13
2022-10-10T06:30:41.960Z,13.27
2022-10-10T06:33:10.317Z,11.30
2022-10-10T06:35:42.270Z,9.30
2022-10-10T06:38:10.951Z,10.87
2022-10-10T06:40:39.312Z,12.27
2022-10-10T06:43:11.449Z,11.20
2022-10-10T06:45:42.553Z,20.37
2022-10-10T06:48:11.917Z,12.97
2022-10-10T06:50:40.313Z,13.73
2022-10-10T06:53:08.833Z,85.77
2022-10-10T06:55:36.931Z,19.20
2022-10-10T06:58:05.165Z,12.80
2022-10-10T07:00:33.322Z,13.97
2022-10-10T07:03:02.842Z,14.23
2022-10-10T07:05:31.098Z,12.77
2022-10-10T07:07:59.307Z,12.87
2022-10-10T07:10:27.425Z,12.70
2022-10-10T07:12:55.732Z,19.60
2022-10-10T07:15:24.069Z,15.53
2022-10-10T07:17:58.455Z,10.27
2022-10-10T07:20:28.275Z,13.97
2022-10-10T07:22:56.355Z,15.67
2022-10-10T07:25:25.667Z,12.47
2022-10-10T07:27:53.737Z,15.03
2022-10-10T07:30:21.980Z,19.20
2022-10-10T07:32:50.374Z,16.17
2022-10-10T07:35:18.794Z,16.60
2022-10-10T07:37:48.404Z,14.30
2022-10-10T07:40:16.589Z,21.13
2022-10-10T07:42:44.755Z,12.77
2022-10-10T07:45:13.128Z,13.90
2022-10-10T07:47:41.738Z,16.30
2022-10-10T07:50:11.586Z,17.67
2022-10-10T07:52:40.088Z,10.93
2022-10-10T07:55:10.734Z,34.40
2022-10-10T07:57:38.973Z,16.60
2022-10-10T08:00:09.642Z,24.70
2022-10-10T08:02:37.781Z,67.47
2022-10-10T08:05:06.730Z,178.73
2022-10-10T08:07:34.848Z,107.27
2022-10-10T08:10:03.549Z,21.67
2022-10-10T08:12:33.062Z,28.93
2022-10-10T08:15:01.364Z,21.30
2022-10-10T08:17:30.037Z,35.93
2022-10-10T08:19:58.296Z,32.33
2022-10-10T08:22:26.466Z,19.70
2022-10-10T08:24:55.144Z,22.30
2022-10-10T08:27:23.616Z,17.67
2022-10-10T08:29:53.168Z,15.87
2022-10-10T08:32:21.343Z,17.60
2022-10-10T08:34:49.470Z,14.93
2022-10-10T08:37:17.615Z,12.83
2022-10-10T08:39:45.692Z,12.80
2022-10-10T08:42:18.724Z,25.37
2022-10-10T08:44:51.058Z,16.67
2022-10-10T08:47:24.034Z,43.00
2022-10-10T08:49:57.537Z,13.03
2022-10-10T08:52:34.743Z,11.73
2022-10-10T08:55:05.426Z,11.37
2022-10-10T08:57:37.275Z,24.00
2022-10-10T09:00:08.375Z,18.67
2022-10-10T09:02:53.799Z,13.57
2022-10-10T09:05:32.084Z,17.63
2022-10-10T09:08:26.823Z,14.90
2022-10-10T09:10:58.549Z,26.60
2022-10-10T09:13:34.512Z,14.43
2022-10-10T09:16:05.411Z,10.93
2022-10-10T09:18:53.789Z,17.40
2022-10-10T09:21:26.290Z,13.23
2022-10-10T09:24:03.669Z,62.07
2022-10-10T09:26:36.906Z,67.63
2022-10-10T09:29:15.743Z,33.43
2022-10-10T09:31:49.429Z,21.00
2022-10-10T09:34:24.704Z,21.50
2022-10-10T09:36:57.219Z,15.53
2022-10-10T09:39:36.882Z,14.00
2022-10-10T09:42:10.908Z,17.50
2022-10-10T09:44:43.529Z,18.63
2022-10-10T09:47:16.123Z,18.03
2022-10-10T09:49:46.534Z,18.30
2022-10-10T09:52:28.216Z,20.30
2022-10-10T09:55:00.897Z,43.23
2022-10-10T09:57:34.999Z,21.43
2022-10-10T10:00:26.486Z,36.10
2022-10-10T10:03:16.318Z,17.83
2022-10-10T10:05:54.315Z,21.67
2022-10-10T10:08:26.962Z,24.73
2022-10-10T10:10:58.361Z,16.07
2022-10-10T10:13:29.763Z,11.47
2022-10-10T10:16:04.041Z,29.40
2022-10-10T10:18:32.823Z,10.23
2022-10-10T10:21:24.363Z,14.40
2022-10-10T10:23:55.675Z,21.97
2022-10-10T10:26:27.722Z,16.03
2022-10-10T10:28:57.765Z,16.27
2022-10-10T10:31:53.953Z,17.70
2022-10-10T10:34:56.108Z,23.10
2022-10-10T10:37:28.927Z,22.00
2022-10-10T10:40:20.015Z,25.33
2022-10-10T10:43:18.409Z,19.03
2022-10-10T10:45:55.492Z,18.03
2022-10-10T10:48:28.979Z,14.60
2022-10-10T10:51:10.281Z,26.10
2022-10-10T10:53:46.789Z,17.27
2022-10-10T10:56:24.612Z,24.17
2022-10-10T10:59:34.451Z,18.17
2022-10-10T11:02:12.163Z,21.20
2022-10-10T11:05:19.872Z,20.43
2022-10-10T11:08:02.667Z,17.30
2022-10-10T11:10:39.626Z,18.30
2022-10-10T11:13:16.449Z,23.83
2022-10-10T11:18:43.834Z,26.80
2022-10-10T11:21:18.479Z,56.53
2022-10-10T11:23:58.914Z,14.50
2022-10-10T11:27:16.318Z,27.40
2022-10-10T11:29:58.736Z,18.37
2022-10-10T11:32:34.217Z,20.80
2022-10-10T11:35:25.287Z,22.03
2022-10-10T11:37:58.689Z,17.23
2022-10-10T11:40:42.594Z,15.40
2022-10-10T11:43:16.621Z,12.97
2022-10-10T11:45:49.856Z,16.60
2022-10-10T11:48:29.171Z,20.03
2022-10-10T11:51:04.345Z,20.47
2022-10-10T11:53:39.047Z,18.37
2022-10-10T11:56:15.659Z,11.63
2022-10-10T11:58:50.920Z,19.00
2022-10-10T12:01:24.674Z,15.03
2022-10-10T12:04:11.684Z,21.37
2022-10-10T12:06:43.389Z,16.30
2022-10-10T12:09:17.122Z,13.60
2022-10-10T12:11:50.358Z,13.80
2022-10-10T12:14:22.617Z,24.53
2022-10-10T12:16:51.958Z,18.37
2022-10-10T12:19:21.870Z,23.63
2022-10-10T12:21:59.094Z,18.30
2022-10-10T12:24:28.707Z,20.80
2022-10-10T12:27:29.901Z,19.20
2022-10-10T12:30:20.333Z,21.50
2022-10-10T12:32:54.117Z,16.53
2022-10-10T12:35:37.197Z,21.23
2022-10-10T12:38:24.173Z,24.20
2022-10-10T12:41:19.087Z,19.03
2022-10-10T12:43:51.481Z,22.43
2022-10-10T12:46:27.795Z,24.90
2022-10-10T12:49:02.575Z,38.23
2022-10-10T12:51:33.510Z,16.60
2022-10-10T12:54:04.580Z,32.37
2022-10-10T12:56:42.006Z,25.67
2022-10-10T12:59:21.231Z,20.00
2022-10-10T13:01:55.533Z,24.93
2022-10-10T13:04:25.250Z,25.93
2022-10-10T13:06:57.095Z,23.07
2022-10-10T13:09:31.080Z,24.63
2022-10-10T13:12:03.919Z,23.60
2022-10-10T13:14:40.639Z,27.30
2022-10-10T13:17:26.189Z,17.00
2022-10-10T13:19:55.328Z,27.97
2022-10-10T13:22:24.586Z,21.77
2022-10-10T13:24:53.762Z,27.50
2022-10-10T13:27:24.849Z,26.53
2022-10-10T13:29:53.821Z,28.07
2022-10-10T13:32:26.555Z,25.40
2022-10-10T13:34:58.192Z,28.57
2022-10-10T13:37:27.117Z,21.67
2022-10-10T13:39:55.710Z,34.23
2022-10-10T13:42:37.354Z,23.47
2022-10-10T13:45:33.652Z,34.43
2022-10-10T13:48:22.848Z,32.27
2022-10-10T13:51:02.070Z,26.17
2022-10-10T13:53:52.496Z,26.90
2022-10-10T13:56:29.432Z,27.87
2022-10-10T13:59:05.744Z,40.87
2022-10-10T14:01:39.735Z,21.37
2022-10-10T14:04:25.292Z,19.27
2022-10-10T14:07:00.466Z,30.57
2022-10-10T14:09:32.946Z,23.07
2022-10-10T14:12:04.199Z,31.63
2022-10-10T14:14:41.727Z,35.33
2022-10-10T14:17:11.106Z,26.40
2022-10-10T14:19:41.265Z,25.40
2022-10-10T14:22:09.443Z,31.60
2022-10-10T14:24:37.920Z,32.33
2022-10-10T14:27:09.622Z,25.27
2022-10-10T14:29:38.854Z,23.80
2022-10-10T14:32:07.954Z,21.17
2022-10-10T14:34:36.027Z,23.87
2022-10-10T14:37:05.934Z,21.17
2022-10-10T14:39:34.120Z,29.80
2022-10-10T14:42:03.545Z,23.13
2022-10-10T14:44:31.718Z,32.40
2022-10-10T14:46:59.849Z,20.50
2022-10-10T14:49:28.028Z,15.93
2022-10-10T14:51:56.179Z,31.20
2022-10-10T14:54:25.709Z,28.87
2022-10-10T14:57:09.440Z,29.67
2022-10-10T14:59:47.483Z,29.30
2022-10-10T15:02:19.428Z,34.00
2022-10-10T15:04:47.584Z,19.50
2022-10-10T15:07:15.999Z,22.10
2022-10-10T15:12:34.968Z,24.57
2022-10-10T15:15:03.294Z,28.27
2022-10-10T15:17:34.253Z,28.93
2022-10-10T15:20:02.897Z,38.17
2022-10-10T15:22:33.130Z,23.67
2022-10-10T15:25:02.834Z,21.97
2022-10-10T15:27:32.752Z,30.33
2022-10-10T15:30:01.673Z,24.43
2022-10-10T15:32:29.894Z,28.63
2022-10-10T15:34:58.075Z,24.30
2022-10-10T15:37:27.772Z,34.03
2022-10-10T15:39:55.883Z,29.33
2022-10-10T15:42:25.395Z,23.70
2022-10-10T15:44:53.496Z,21.93
2022-10-10T15:47:21.957Z,21.93
2022-10-10T15:49:50.355Z,25.13
2022-10-10T15:52:18.934Z,30.83
2022-10-10T15:54:50.070Z,21.23
2022-10-10T15:57:19.397Z,31.43
2022-10-10T15:59:49.861Z,32.00
2022-10-10T16:02:18.571Z,27.43
2022-10-10T16:04:47.208Z,51.30
2022-10-10T16:07:34.688Z,32.80
2022-10-10T16:10:04.117Z,27.57
2022-10-10T16:12:32.334Z,32.20
2022-10-10T16:15:06.162Z,26.33
2022-10-10T16:17:35.241Z,25.30
2022-10-10T16:20:03.726Z,30.37
2022-10-10T16:22:31.836Z,30.90
2022-10-10T16:27:48.407Z,31.50
2022-10-10T16:30:17.982Z,20.90
2022-10-10T16:32:46.111Z,29.50
2022-10-10T16:35:14.217Z,40.57
2022-10-10T16:37:42.400Z,23.00
2022-10-10T16:40:11.560Z,26.87
2022-10-10T16:42:39.731Z,30.90
2022-10-10T16:45:08.963Z,25.93
2022-10-10T16:47:38.750Z,28.60
2022-10-10T16:50:08.372Z,34.03
2022-10-10T16:52:38.359Z,24.27
2022-10-10T16:55:07.827Z,33.50
2022-10-10T16:57:36.494Z,31.20
2022-10-10T17:00:05.881Z,33.47
2022-10-10T17:02:34.073Z,29.70
2022-10-10T17:05:03.631Z,24.27
2022-10-10T17:07:31.773Z,24.07
2022-10-10T17:10:00.062Z,24.67
2022-10-10T17:12:28.262Z,23.80
2022-10-10T17:14:56.373Z,34.53
2022-10-10T17:17:24.527Z,23.53
2022-10-10T17:19:53.132Z,53.37
2022-10-10T17:22:22.704Z,22.27
2022-10-10T17:24:50.952Z,24.40
2022-10-10T17:27:19.154Z,30.97
2022-10-10T17:29:47.478Z,24.83
2022-10-10T17:32:15.719Z,37.90
2022-10-10T17:34:43.845Z,26.73
2022-10-10T17:37:12.026Z,23.83
2022-10-10T17:39:41.484Z,29.47
2022-10-10T17:42:09.639Z,26.10
2022-10-10T17:44:44.745Z,31.00
2022-10-10T17:47:17.175Z,24.93
2022-10-10T17:49:46.711Z,64.43
2022-10-10T17:52:18.986Z,22.70
2022-10-10T17:54:52.117Z,39.10
2022-10-10T17:57:20.384Z,21.53
2022-10-10T17:59:51.475Z,29.70
2022-10-10T18:02:19.988Z,25.47
2022-10-10T18:04:48.136Z,40.73
2022-10-10T18:07:18.630Z,29.30
2022-10-10T18:09:52.921Z,31.30
2022-10-10T18:12:29.194Z,25.37
2022-10-10T18:14:57.464Z,21.50
2022-10-10T18:17:25.622Z,23.10
2022-10-10T18:19:53.778Z,27.90
2022-10-10T18:22:21.948Z,25.90
2022-10-10T18:24:50.083Z,34.53
2022-10-10T18:27:20.910Z,24.73
2022-10-10T18:29:49.301Z,36.43
2022-10-10T18:32:17.390Z,31.37
2022-10-10T18:34:45.550Z,26.37
2022-10-10T18:37:13.678Z,27.53
2022-10-10T18:39:42.391Z,20.00
2022-10-10T18:42:10.782Z,32.97
2022-10-10T18:44:40.331Z,30.53
2022-10-10T18:47:08.522Z,23.13
2022-10-10T18:49:36.872Z,23.17
2022-10-10T18:52:05.170Z,21.77
2022-10-10T18:54:35.467Z,25.23
2022-10-10T18:57:03.510Z,31.57
2022-10-10T18:59:32.112Z,30.13
2022-10-10T19:02:01.677Z,55.37
2022-10-10T19:04:29.802Z,191.03
2022-10-10T19:06:58.072Z,140.40
2022-10-10T19:09:26.939Z,94.40
2022-10-10T19:11:55.508Z,74.13
2022-10-10T19:14:23.705Z,53.53
2022-10-10T19:16:51.955Z,76.00
2022-10-10T19:19:22.033Z,84.13
2022-10-10T19:21:51.094Z,60.60
2022-10-10T19:24:21.406Z,47.27
2022-10-10T19:26:55.901Z,36.60
2022-10-10T19:29:25.137Z,34.40
2022-10-10T19:31:53.599Z,28.63
2022-10-10T19:34:23.301Z,33.03
2022-10-10T19:36:51.455Z,32.83
2022-10-10T19:39:19.573Z,24.70
2022-10-10T19:41:48.045Z,35.90
2022-10-10T19:44:16.221Z,32.93
2022-10-10T19:46:44.303Z,27.40
2022-10-10T19:49:12.769Z,58.27
2022-10-10T19:51:42.306Z,25.87
2022-10-10T19:54:10.503Z,34.67
2022-10-10T19:56:38.874Z,25.83
2022-10-10T19:59:07.057Z,22.27
2022-10-10T20:01:35.306Z,52.47
2022-10-10T20:04:03.606Z,26.20
2022-10-10T20:06:31.805Z,28.30
2022-10-10T20:09:01.315Z,30.13
2022-10-10T20:11:29.513Z,31.63
2022-10-10T20:13:58.380Z,26.67
2022-10-10T20:16:27.769Z,26.50
2022-10-10T20:18:57.169Z,23.67
2022-10-10T20:21:29.277Z,23.93
2022-10-10T20:23:58.133Z,20.27
2022-10-10T20:26:27.904Z,21.47
2022-10-10T20:28:57.750Z,23.73
2022-10-10T20:31:28.455Z,31.13
2022-10-10T20:33:58.367Z,29.27
2022-10-10T20:36:27.043Z,34.10
2022-10-10T20:38:56.137Z,24.10
2022-10-10T20:41:26.270Z,22.63
2022-10-10T20:43:59.291Z,21.37
2022-10-10T20:46:28.991Z,28.90
2022-10-10T20:48:57.520Z,36.53
2022-10-10T20:51:26.392Z,18.13
2022-10-10T20:53:57.153Z,27.20
2022-10-10T20:56:26.175Z,25.33
2022-10-10T20:58:54.557Z,39.43
2022-10-10T21:01:26.199Z,27.90
2022-10-10T21:03:54.676Z,22.07
2022-10-10T21:06:24.893Z,44.00
2022-10-10T21:08:54.344Z,24.37
2022-10-10T21:11:23.563Z,29.60
2022-10-10T21:13:54.228Z,27.77
2022-10-10T21:16:25.128Z,18.80
2022-10-10T21:18:57.812Z,29.80
2022-10-10T21:21:27.050Z,29.07
2022-10-10T21:23:56.527Z,34.60
2022-10-10T21:26:26.507Z,27.83
2022-10-10T21:28:55.651Z,39.20
2022-10-10T21:31:26.770Z,24.60
2022-10-10T21:33:55.406Z,28.23
2022-10-10T21:36:25.362Z,24.80
2022-10-10T21:38:53.689Z,26.30
2022-10-10T21:41:22.891Z,30.90
2022-10-10T21:43:54.766Z,27.53
2022-10-10T21:46:29.092Z,21.10
2022-10-10T21:48:59.153Z,26.47
2022-10-10T21:51:27.563Z,21.83
2022-10-10T21:53:57.888Z,20.50
2022-10-10T21:56:26.923Z,28.93
2022-10-10T21:59:00.148Z,28.13
2022-10-10T22:01:33.163Z,29.47
2022-10-10T22:04:02.735Z,20.17
2022-10-10T22:06:31.830Z,27.90
2022-10-10T22:09:01.649Z,28.40
2022-10-10T22:11:31.515Z,25.37
2022-10-10T22:14:02.280Z,27.90
2022-10-10T22:16:33.124Z,42.30
2022-10-10T22:19:01.552Z,30.67
2022-10-10T22:21:32.320Z,37.93
2022-10-10T22:24:01.836Z,27.77
2022-10-10T22:26:30.649Z,28.30
2022-10-10T22:28:59.166Z,20.60
2022-10-10T22:31:27.608Z,32.63
2022-10-10T22:33:57.328Z,21.10
2022-10-10T22:36:25.453Z,29.10
2022-10-10T22:38:53.597Z,28.23
2022-10-10T22:41:21.729Z,25.47
2022-10-10T22:43:49.844Z,26.70
2022-10-10T22:46:18.049Z,23.57
2022-10-10T22:48:46.235Z,29.10
2022-10-10T22:51:17.487Z,32.03
2022-10-10T22:53:46.869Z,23.43
2022-10-10T22:56:16.574Z,30.53
2022-10-10T22:58:44.869Z,27.30
2022-10-10T23:01:16.776Z,22.37
2022-10-10T23:03:45.118Z,21.23
2022-10-10T23:06:15.085Z,21.07
2022-10-10T23:08:43.233Z,25.53
2022-10-10T23:11:11.385Z,26.63
2022-10-10T23:13:39.480Z,24.00
2022-10-10T23:16:08.625Z,24.00
2022-10-10T23:18:37.113Z,25.93
2022-10-10T23:21:05.338Z,28.70
2022-10-10T23:23:34.851Z,21.13
2022-10-10T23:26:06.729Z,22.57
2022-10-10T23:28:36.118Z,25.03
2022-10-10T23:31:06.826Z,20.37
2022-10-10T23:33:37.083Z,21.50
2022-10-10T23:36:08.200Z,28.70
2022-10-10T23:38:38.881Z,19.07
2022-10-10T23:41:07.665Z,23.83
2022-10-10T23:43:36.183Z,16.13
2022-10-10T23:46:05.100Z,32.07
2022-10-10T23:48:33.487Z,16.27
2022-10-10T23:51:01.578Z,28.03
2022-10-10T23:53:29.714Z,19.87
2022-10-10T23:55:59.286Z,25.00
2022-10-10T23:58:27.488Z,19.90
